createdAt,value
2023-06-10T00:04:29.527Z,4.32
2023-06-10T00:09:34.287Z,2.88
2023-06-10T00:14:43.012Z,2.83
2023-06-10T00:19:48.833Z,3.35
2023-06-10T00:24:53.956Z,2.97
2023-06-10T00:29:57.845Z,3.28
2023-06-10T00:35:02.139Z,4.38
2023-06-10T00:40:11.359Z,4.15
2023-06-10T00:45:15.495Z,3.58
2023-06-10T00:50:19.574Z,4.32
2023-06-10T00:55:25.265Z,4.18
2023-06-10T01:00:29.298Z,4.28
2023-06-10T01:05:33.500Z,4.20
2023-06-10T01:10:45.558Z,4.78
2023-06-10T01:15:49.649Z,5.30
2023-06-10T01:20:53.968Z,5.53
2023-06-10T01:26:04.733Z,5.32
2023-06-10T01:31:35.838Z,6.70
2023-06-10T01:36:42.748Z,5.43
2023-06-10T01:41:48.468Z,5.95
2023-06-10T01:46:52.852Z,4.97
2023-06-10T01:51:56.906Z,5.43
2023-06-10T01:57:01.147Z,4.30
2023-06-10T02:02:06.581Z,4.50
2023-06-10T02:07:10.504Z,4.65
2023-06-10T02:12:16.698Z,4.63
2023-06-10T02:17:22.655Z,4.65
2023-06-10T02:22:46.750Z,4.82
2023-06-10T02:27:53.882Z,5.00
2023-06-10T02:32:58.967Z,5.30
2023-06-10T02:38:03.546Z,4.60
2023-06-10T02:43:08.067Z,4.35
2023-06-10T02:48:13.723Z,4.22
2023-06-10T02:53:18.609Z,4.28
2023-06-10T02:58:28.437Z,3.33
2023-06-10T03:03:35.506Z,3.58
2023-06-10T03:08:45.066Z,3.60
2023-06-10T03:13:52.790Z,2.78
2023-06-10T03:18:56.892Z,3.33
2023-06-10T03:24:01.117Z,3.47
2023-06-10T03:29:05.737Z,3.65
2023-06-10T03:34:09.866Z,3.60
2023-06-10T03:39:14.700Z,3.20
2023-06-10T03:44:18.803Z,3.00
2023-06-10T03:49:23.622Z,3.30
2023-06-10T03:54:27.732Z,3.20
2023-06-10T03:59:31.916Z,2.85
2023-06-10T04:04:36.839Z,2.85
2023-06-10T04:09:41.908Z,3.30
2023-06-10T04:14:45.991Z,3.33
2023-06-10T04:19:50.089Z,3.20
2023-06-10T04:24:55.057Z,2.78
2023-06-10T04:29:59.243Z,3.83
2023-06-10T04:35:03.626Z,2.92
2023-06-10T04:40:10.631Z,3.10
2023-06-10T04:45:15.095Z,3.42
2023-06-10T04:50:19.726Z,3.28
2023-06-10T04:55:23.898Z,3.17
2023-06-10T05:00:27.875Z,2.80
2023-06-10T05:05:32.069Z,3.33
2023-06-10T05:10:36.914Z,4.88
2023-06-10T05:15:42.078Z,3.15
2023-06-10T05:20:46.239Z,2.50
2023-06-10T05:25:50.202Z,3.50
2023-06-10T05:30:54.564Z,3.47
2023-06-10T05:35:58.875Z,2.97
2023-06-10T05:41:03.010Z,3.17
2023-06-10T05:46:06.990Z,3.70
2023-06-10T05:51:12.513Z,3.90
2023-06-10T05:56:17.076Z,4.78
2023-06-10T06:01:21.139Z,4.82
2023-06-10T06:06:25.792Z,5.10
2023-06-10T06:11:29.729Z,3.95
2023-06-10T06:16:35.118Z,6.18
2023-06-10T06:21:39.286Z,4.00
2023-06-10T06:26:44.006Z,4.60
2023-06-10T06:31:48.267Z,5.78
2023-06-10T06:36:52.457Z,5.18
2023-06-10T06:41:58.851Z,6.32
2023-06-10T06:47:24.814Z,5.53
2023-06-10T06:52:28.767Z,7.03
2023-06-10T06:57:32.920Z,7.75
2023-06-10T07:02:37.960Z,6.20
2023-06-10T07:07:41.961Z,7.40
2023-06-10T07:12:46.359Z,6.18
2023-06-10T07:17:50.491Z,6.95
2023-06-10T07:22:54.675Z,5.88
2023-06-10T07:27:58.661Z,6.22
2023-06-10T07:33:04.006Z,6.55
2023-06-10T07:38:08.233Z,6.82
2023-06-10T07:43:12.609Z,7.65
2023-06-10T07:48:16.969Z,8.30
2023-06-10T07:53:21.017Z,8.50
2023-06-10T07:58:25.246Z,8.30
2023-06-10T08:03:29.333Z,9.13
2023-06-10T08:08:33.458Z,9.70
2023-06-10T08:13:37.618Z,11.40
2023-06-10T08:18:42.075Z,9.77
2023-06-10T08:23:46.322Z,10.30
2023-06-10T08:28:50.593Z,10.65
2023-06-10T08:33:55.113Z,11.18
2023-06-10T08:38:59.183Z,11.35
2023-06-10T08:44:14.208Z,11.38
2023-06-10T08:49:24.498Z,11.00
2023-06-10T08:54:34.020Z,12.70
2023-06-10T08:59:39.427Z,13.35
2023-06-10T09:04:46.012Z,14.20
2023-06-10T09:09:51.424Z,12.15
2023-06-10T09:14:55.608Z,11.35
2023-06-10T09:20:04.652Z,11.50
2023-06-10T09:25:12.685Z,16.08
2023-06-10T09:30:37.112Z,12.02
2023-06-10T09:35:49.125Z,12.05
2023-06-10T09:40:58.444Z,16.35
2023-06-10T09:46:02.417Z,12.77
2023-06-10T09:51:11.949Z,11.38
2023-06-10T09:56:16.219Z,12.65
2023-06-10T10:01:20.290Z,10.88
2023-06-10T10:06:24.822Z,12.23
2023-06-10T10:11:29.861Z,11.13
2023-06-10T10:16:42.843Z,12.40
2023-06-10T10:21:56.456Z,10.68
2023-06-10T10:27:07.700Z,10.55
2023-06-10T10:32:16.014Z,11.32
2023-06-10T10:37:21.975Z,11.27
2023-06-10T10:42:27.119Z,11.73
2023-06-10T10:47:35.335Z,12.32
2023-06-10T10:53:05.839Z,11.65
2023-06-10T10:58:11.207Z,12.90
2023-06-10T11:03:18.782Z,13.90
2023-06-10T11:08:34.983Z,15.73
2023-06-10T11:13:40.471Z,14.57
2023-06-10T11:18:44.596Z,14.27
2023-06-10T11:23:48.926Z,13.82
2023-06-10T11:28:56.196Z,12.52
2023-06-10T11:34:07.428Z,16.85
2023-06-10T11:39:12.233Z,13.23
2023-06-10T11:44:20.263Z,14.27
2023-06-10T11:49:27.148Z,13.60
2023-06-10T11:54:31.207Z,15.75
2023-06-10T11:59:35.408Z,19.25
2023-06-10T12:04:39.377Z,14.15
2023-06-10T12:09:43.421Z,14.43
2023-06-10T12:14:58.964Z,14.50
2023-06-10T12:20:30.738Z,14.05
2023-06-10T12:25:34.828Z,14.02
2023-06-10T12:30:38.810Z,14.30
2023-06-10T12:35:53.002Z,13.88
2023-06-10T12:41:05.644Z,15.30
2023-06-10T12:46:13.865Z,12.88
2023-06-10T12:51:18.305Z,13.65
2023-06-10T12:56:23.766Z,12.77
2023-06-10T13:01:28.656Z,14.95
2023-06-10T13:06:34.122Z,13.68
2023-06-10T13:11:38.418Z,11.90
2023-06-10T13:16:42.859Z,11.65
2023-06-10T13:21:47.351Z,9.93
2023-06-10T13:26:51.229Z,15.25
2023-06-10T13:31:55.371Z,15.38
2023-06-10T13:37:00.153Z,21.92
2023-06-10T13:42:04.626Z,13.95
2023-06-10T13:47:08.749Z,25.63
2023-06-10T13:52:13.269Z,11.85
2023-06-10T13:57:17.390Z,19.10
2023-06-10T14:02:21.878Z,17.13
2023-06-10T14:07:28.187Z,14.90
2023-06-10T14:12:32.699Z,17.05
2023-06-10T14:17:37.022Z,20.40
2023-06-10T14:22:41.296Z,23.65
2023-06-10T14:27:45.707Z,20.80
2023-06-10T14:32:49.773Z,16.83
2023-06-10T14:37:54.210Z,16.27
2023-06-10T14:42:58.417Z,14.45
2023-06-10T14:48:02.531Z,13.55
2023-06-10T14:53:09.016Z,13.25
2023-06-10T14:58:13.085Z,12.15
2023-06-10T15:03:17.233Z,12.55
2023-06-10T15:08:21.278Z,11.77
2023-06-10T15:13:25.450Z,12.75
2023-06-10T15:18:29.457Z,12.73
2023-06-10T15:23:33.602Z,13.52
2023-06-10T15:28:37.736Z,25.95
2023-06-10T15:33:41.657Z,27.65
2023-06-10T15:38:45.949Z,22.90
2023-06-10T15:43:50.073Z,19.20
2023-06-10T15:48:55.355Z,18.50
2023-06-10T15:53:59.334Z,17.27
2023-06-10T15:59:03.562Z,20.27
2023-06-10T16:04:07.649Z,20.52
2023-06-10T16:09:12.195Z,18.13
2023-06-10T16:14:16.721Z,21.17
2023-06-10T16:19:20.696Z,23.83
2023-06-10T16:24:25.230Z,24.10
2023-06-10T16:29:29.842Z,25.55
2023-06-10T16:34:34.019Z,22.48
2023-06-10T16:39:38.413Z,17.27
2023-06-10T16:44:45.763Z,19.30
2023-06-10T16:49:50.845Z,17.88
2023-06-10T16:54:55.860Z,17.02
2023-06-10T17:00:00.213Z,18.35
2023-06-10T17:05:04.388Z,19.13
2023-06-10T17:10:09.694Z,17.92
2023-06-10T17:15:13.713Z,17.75
2023-06-10T17:20:18.065Z,18.85
2023-06-10T17:25:22.254Z,18.55
2023-06-10T17:30:26.829Z,18.63
2023-06-10T17:35:31.036Z,18.20
2023-06-10T17:40:35.067Z,16.98
2023-06-10T17:45:39.265Z,17.88
2023-06-10T17:50:43.434Z,18.60
2023-06-10T17:55:47.568Z,15.63
2023-06-10T18:00:51.551Z,15.80
2023-06-10T18:05:56.905Z,14.85
2023-06-10T18:11:00.823Z,16.20
2023-06-10T18:16:05.216Z,15.75
2023-06-10T18:21:16.371Z,17.10
2023-06-10T18:26:20.338Z,16.48
2023-06-10T18:31:25.491Z,16.42
2023-06-10T18:36:29.536Z,18.83
2023-06-10T18:41:33.752Z,17.25
2023-06-10T18:46:38.026Z,16.42
2023-06-10T18:51:42.139Z,17.02
2023-06-10T18:56:46.204Z,16.98
2023-06-10T19:01:50.300Z,17.08
2023-06-10T19:06:54.483Z,16.20
2023-06-10T19:11:58.562Z,17.25
2023-06-10T19:17:02.435Z,18.90
2023-06-10T19:22:06.989Z,17.45
2023-06-10T19:27:12.353Z,17.05
2023-06-10T19:32:16.930Z,16.65
2023-06-10T19:37:21.108Z,18.48
2023-06-10T19:42:28.132Z,19.63
2023-06-10T19:47:32.400Z,17.90
2023-06-10T19:52:36.560Z,18.50
2023-06-10T19:57:40.649Z,18.27
2023-06-10T20:02:44.715Z,20.15
2023-06-10T20:07:48.787Z,18.67
2023-06-10T20:12:52.747Z,16.55
2023-06-10T20:17:56.929Z,18.58
2023-06-10T20:23:00.933Z,17.48
2023-06-10T20:28:05.012Z,20.15
2023-06-10T20:33:09.347Z,21.05
2023-06-10T20:38:13.475Z,19.30
2023-06-10T20:43:18.526Z,20.90
2023-06-10T20:48:22.624Z,22.50
2023-06-10T20:53:26.676Z,23.58
2023-06-10T20:58:31.318Z,22.92
2023-06-10T21:03:36.341Z,24.90
2023-06-10T21:08:41.198Z,26.95
2023-06-10T21:13:45.328Z,27.02
2023-06-10T21:18:49.259Z,27.20
2023-06-10T21:23:56.160Z,26.95
2023-06-10T21:29:00.102Z,26.95
2023-06-10T21:34:04.469Z,27.50
2023-06-10T21:39:08.714Z,27.75
2023-06-10T21:44:12.634Z,28.60
2023-06-10T21:49:17.146Z,28.83
2023-06-10T21:54:21.036Z,28.83
2023-06-10T21:59:25.336Z,29.95
2023-06-10T22:04:29.354Z,28.17
2023-06-10T22:09:33.630Z,28.55
2023-06-10T22:14:37.680Z,27.77
2023-06-10T22:19:43.084Z,26.55
2023-06-10T22:24:52.162Z,26.55
2023-06-10T22:29:56.206Z,25.55
2023-06-10T22:35:00.241Z,25.58
2023-06-10T22:40:08.822Z,22.48
2023-06-10T22:45:13.247Z,23.08
2023-06-10T22:50:17.814Z,21.80
2023-06-10T22:55:21.726Z,21.35
2023-06-10T23:00:25.934Z,20.80
2023-06-10T23:05:30.327Z,20.30
2023-06-10T23:10:34.427Z,20.15
2023-06-10T23:15:38.437Z,20.30
2023-06-10T23:20:43.433Z,19.85
2023-06-10T23:25:47.568Z,18.30
2023-06-10T23:30:51.476Z,17.35
2023-06-10T23:35:55.754Z,23.27
2023-06-10T23:40:59.794Z,23.35
2023-06-10T23:46:04.096Z,21.65
2023-06-10T23:51:08.308Z,23.63
2023-06-10T23:56:12.586Z,18.48
